Flight Track Log - Related Links

Times and Time Zones

All times are in EDT time to prevent confusion due to time zone crossing. See the CES5737 flight status page for this flight to view local times or setup timezone preferences in your user account.

Time Position Orientation Groundspeed Altitude Reporting Facility
EDT Latitude Longitude Course Direction KTS MPH feet Rate Location/Type
Wed 05:27:00 AM 24.8141 105.0446 98° East  Level Estimated
Wed 05:28:00 AM 24.7990 105.1501 99° East  Level Estimated
Wed 05:29:00 AM 24.7837 105.2556 99° East  Level Estimated
Wed 05:30:00 AM 24.7684 105.3611 99° East  Level Estimated
Wed 05:31:00 AM 24.7530 105.4665 99° East  Level Estimated
Wed 05:32:00 AM 24.7376 105.5719 99° East  Level Estimated
Wed 05:33:00 AM 24.7220 105.6773 99° East  Level Estimated
Wed 05:34:00 AM 24.7064 105.7827 99° East  Level Estimated
Wed 05:35:00 AM 24.6907 105.8880 99° East  Level Estimated
Wed 05:36:00 AM 24.6749 105.9933 99° East  Level Estimated
Wed 05:37:00 AM 24.6591 106.0986 99° East  Level Estimated
Wed 05:38:00 AM 24.6432 106.2038 99° East  Level Estimated
Wed 05:39:00 AM 24.6272 106.3090 99° East  Level Estimated
Wed 05:40:00 AM 24.6112 106.4142 100° East  Level Estimated
Wed 05:41:00 AM 24.5950 106.5194 100° East  Level Estimated
Wed 05:42:00 AM 24.5788 106.6245 100° East  Level Estimated
Wed 05:43:00 AM 24.5626 106.7296 100° East  Level Estimated
Wed 05:44:00 AM 24.5462 106.8347 100° East  Level Estimated
Wed 05:45:00 AM 24.5298 106.9398 100° East  Level Estimated
Wed 05:46:00 AM 24.5133 107.0448 100° East  Level Estimated
Wed 05:47:00 AM 24.4967 107.1498 100° East  Level Estimated
Wed 05:48:00 AM 24.4801 107.2548 100° East  Level Estimated
Wed 05:49:00 AM 24.4634 107.3597 100° East  Level Estimated
Wed 05:50:00 AM 24.4466 107.4647 100° East  Level Estimated
Wed 05:51:00 AM 24.4298 107.5695 100° East  Level Estimated
Wed 05:52:00 AM 24.4128 107.6744 100° East  Level Estimated
Wed 05:53:00 AM 24.3958 107.7792 100° East  Level Estimated
Wed 05:54:00 AM 24.3788 107.8840 100° East  Level Estimated
Wed 05:55:00 AM 24.3616 107.9888 100° East  Level Estimated
Wed 05:56:00 AM 24.3444 108.0936 100° East  Level Estimated
Wed 05:57:00 AM 24.3271 108.1983 100° East  Level Estimated
Wed 05:58:00 AM 24.3097 108.3030 100° East  Level Estimated
Wed 05:59:00 AM 24.2923 108.4076 100° East  Level Estimated
Wed 06:00:00 AM 24.2748 108.5123 100° East  Level Estimated
Wed 06:01:00 AM 24.2572 108.6169 100° East  Level Estimated
Wed 06:02:00 AM 24.2396 108.7215 100° East  Level Estimated
Wed 06:03:00 AM 24.2219 108.8260 101° East  Level Estimated
Wed 06:04:00 AM 24.2041 108.9305 101° East  Level Estimated
Wed 06:05:00 AM 24.1862 109.0350 101° East  Level Estimated
Wed 06:06:00 AM 24.1683 109.1395 101° East  Level Estimated
Wed 06:07:00 AM 24.1503 109.2439 101° East  Level Estimated
Wed 06:08:00 AM 24.1322 109.3483 101° East  Level Estimated
Wed 06:09:00 AM 24.1141 109.4527 101° East  Level Estimated
Wed 06:10:00 AM 24.0959 109.5570 101° East  Level Estimated
Wed 06:11:00 AM 24.0776 109.6613 101° East  Level Estimated
Wed 06:12:00 AM 24.0592 109.7656 101° East  Level Estimated
Wed 06:12:49 AM 23.3580 110.9030 101° East 446 513 31,100  Level FlightAware ADS-B
Wed 06:13:00 AM 24.0408 109.8699 101° East  Level Estimated
Wed 06:13:26 AM 23.3460 110.9720 101° East 446 513 31,100  Level FlightAware ADS-B
Wed 06:14:00 AM 23.3300 111.0600 101° East 447 514 31,100  Level FlightAware ADS-B
Wed 06:14:38 AM 23.3180 111.1310 100° East 447 514 31,100  Level FlightAware ADS-B
Wed 06:15:15 AM 23.3070 111.2010 100° East 447 514 31,100  Level FlightAware ADS-B
Wed 06:15:51 AM 23.2960 111.2690 100° East 447 514 31,100  Level FlightAware ADS-B
Wed 06:16:27 AM 23.2850 111.3370 100° East 447 514 31,100  Level FlightAware ADS-B
Wed 06:17:03 AM 23.2740 111.4050 100° East 447 514 31,100 -5,577 Level FlightAware ADS-B
Wed 06:17:38 AM 23.2480 111.5190 104° East 408 470 24,500 -5,400 Descending FlightAware ADS-B
Wed 06:18:23 AM 23.2330 111.6010 101° East 406 467 23,900 -2,127 Descending FlightAware ADS-B
Wed 06:18:57 AM 23.2190 111.6770 101° East 396 456 21,700 -2,182 Descending FlightAware ADS-B
Wed 06:19:51 AM 23.2010 111.7740 101° East 393 452 20,700 -659 Descending FlightAware ADS-B
Wed 06:20:28 AM 23.1910 111.8350 100° East 393 452 20,700 -2,118 Level FlightAware ADS-B
Wed 06:21:16 AM 23.1720 111.9360 102° East 381 438 17,700 -2,143 Descending FlightAware ADS-B
Wed 06:21:52 AM 23.1620 111.9940 101° East 381 438 17,700 -1,826 Level FlightAware ADS-B
Wed 06:22:25 AM 23.1490 112.0620 102° East 350 403 15,600 -2,507 Descending FlightAware ADS-B
Wed 06:22:59 AM 23.1370 112.1240 102° East 344 396 14,900 -1,083 Descending FlightAware ADS-B
Wed 06:23:37 AM 23.1260 112.1860 101° East 338 389 14,300 -930 Descending FlightAware ADS-B
Wed 06:24:10 AM 23.1160 112.2390 102° East 332 382 13,800 -846 Descending FlightAware ADS-B
Wed 06:24:55 AM 23.1020 112.3140 101° East 329 379 13,200 -779 Descending FlightAware ADS-B
Wed 06:25:27 AM 23.0930 112.3640 101° East 322 371 12,800 -727 Descending FlightAware ADS-B
Wed 06:26:01 AM 23.0820 112.4200 102° East 320 368 12,400 -390 Descending FlightAware ADS-B
Wed 06:26:44 AM 23.0730 112.4770 100° East 320 368 12,300 -552 Descending FlightAware ADS-B
Wed 06:27:28 AM 23.0690 112.5510 93° East 316 364 11,600 -1,315 Descending FlightAware ADS-B
Wed 06:27:57 AM 23.0690 112.6010 90° East 300 345 10,700 -1,301 Descending FlightAware ADS-B
Wed 06:28:51 AM 23.0690 112.6800 90° East 292 336 9,800 -973 Descending FlightAware ADS-B
Wed 06:29:11 AM 23.0690 112.7100 90° East 289 333 9,500 -955 Descending FlightAware ADS-B
Wed 06:29:35 AM 23.0690 112.7450 90° East 288 331 9,100 -1,038 Descending FlightAware ADS-B
Wed 06:30:03 AM 23.0690 112.7850 90° East 283 326 8,600 -1,000 Descending FlightAware ADS-B
Wed 06:30:23 AM 23.0680 112.8130 92° East 281 323 8,300 -938 Descending FlightAware ADS-B
Wed 06:30:35 AM 23.0680 112.8300 90° East 279 321 8,100 -1,000 Descending FlightAware ADS-B
Wed 06:30:59 AM 23.0680 112.8630 90° East 279 321 7,700 -1,091 Descending FlightAware ADS-B
Wed 06:31:19 AM 23.0680 112.8910 90° East 277 319 7,300 -1,105 Descending FlightAware ADS-B
Wed 06:31:37 AM 23.0680 112.9170 90° East 275 316 7,000 -900 Descending FlightAware ADS-B
Wed 06:31:59 AM 23.0680 112.9470 90° East 276 318 6,700 -947 Descending FlightAware ADS-B
Wed 06:32:15 AM 23.0680 112.9680 90° East 274 315 6,400 -1,000 Descending FlightAware ADS-B
Wed 06:32:35 AM 23.0670 112.9940 92° East 271 312 6,100 -980 Descending FlightAware ADS-B
Wed 06:33:04 AM 23.0690 113.0340 87° East 268 308 5,600 -1,000 Descending FlightAware ADS-B
Wed 06:33:23 AM 23.0780 113.0590 69° East 269 310 5,300 -923 Descending FlightAware ADS-B
Wed 06:33:43 AM 23.0880 113.0840 66° East 262 302 5,000 -667 Descending FlightAware ADS-B
Wed 06:33:59 AM 23.0940 113.1020 70° East 251 289 4,900 -500 Descending FlightAware ADS-B
Wed 06:34:19 AM 23.1020 113.1250 69° East 241 277 4,700 -643 Descending FlightAware ADS-B
Wed 06:34:27 AM 23.1060 113.1340 64° Northeast 236 272 4,600 -750 Descending FlightAware ADS-B
Wed 06:34:35 AM 23.1120 113.1420 51° Northeast 233 268 4,500 -600 Descending FlightAware ADS-B
Wed 06:34:57 AM 23.1270 113.1590 46° Northeast 217 250 4,300 -571 Descending FlightAware ADS-B
Wed 06:35:17 AM 23.1410 113.1760 48° Northeast 202 232 4,100 -600 Descending FlightAware ADS-B
Wed 06:35:37 AM 23.1530 113.1900 47° Northeast 194 223 3,900 -667 Descending FlightAware ADS-B
Wed 06:35:53 AM 23.1620 113.2010 48° Northeast 187 215 3,700 -686 Descending FlightAware ADS-B
Wed 06:36:12 AM 23.1730 113.2140 47° Northeast 179 206 3,500 -615 Descending FlightAware ADS-B
Wed 06:36:32 AM 23.1830 113.2260 48° Northeast 175 201 3,300 -643 Descending FlightAware ADS-B
Wed 06:36:40 AM 23.1890 113.2310 37° Northeast 172 198 3,200 -375 Descending FlightAware ADS-B
Wed 06:36:48 AM 23.1950 113.2340 25° Northeast 170 196 3,200 -414 Level FlightAware ADS-B
Wed 06:37:09 AM 23.2110 113.2390 16° North 166 191 3,000 -462 Descending FlightAware ADS-B
Wed 06:37:27 AM 23.2240 113.2420 12° North 157 181 2,900 -462 Descending FlightAware ADS-B
Wed 06:37:48 AM 23.2380 113.2460 15° North 156 180 2,700 -600 Descending FlightAware ADS-B
Wed 06:38:17 AM 23.2590 113.2520 15° North 148 170 2,400 -735 Descending FlightAware ADS-B
Wed 06:38:37 AM 23.2720 113.2550 12° North 138 159 2,100 -698 Descending FlightAware ADS-B
Wed 06:39:00 AM 23.2850 113.2590 16° North 134 154 1,900 -682 Descending FlightAware ADS-B
Wed 06:39:21 AM 23.2980 113.2620 12° North 132 152 1,600 -769 Descending FlightAware ADS-B
Wed 06:39:39 AM 23.3090 113.2650 14° North 131 151 1,400 -682 Descending FlightAware ADS-B
Wed 06:40:05 AM 23.3240 113.2700 17° North 132 152 1,100 -353 Descending FlightAware ADS-B
Wed 06:40:30 AM 23.3370 113.2730 12° North 132 152 1,100  Level FlightAware ADS-B
Wed 06:43:00 AM 23.3924 113.2988 23° Northeast  Level Estimated
Wed 06:44:00 AM 23.3924 113.2988 223° Southwest  Level Estimated
Wed 06:45:00 AM 23.3924 113.2988 223° Southwest  Level Estimated
Wed 06:46:00 AM 23.3924 113.2988 223° Southwest  Level Estimated
Wed 06:47:00 AM 23.3924 113.2988 223° Southwest  Level Estimated

Login

Don't have an account? Register now (free) for customized features, flight alerts, and more!